Time;durP1;ratioP1;P1;durP2;ratioP2;P2;SDS_P1;SDS_P2;PMS_P1;PMS_P2;Temp;Humidity;BMP_temperature;BMP_pressure;BME280_temperature;BME280_humidity;BME280_pressure;Samples;Min_cycle;Max_cycle;Signal;HPM_P1;HPM_P2
2022/12/07 00:01:48;;;;;;;24.57;18.80;;;6.10;99.90;;;;;;4994376;28;20469;-76
2022/12/07 00:04:18;;;;;;;23.70;18.77;;;6.10;99.90;;;;;;4994514;28;20482;-76
2022/12/07 00:06:46;;;;;;;23.50;17.37;;;6.10;99.90;;;;;;4994365;28;20455;-76
2022/12/07 00:09:14;;;;;;;22.63;18.40;;;6.20;99.90;;;;;;4994413;28;20459;-76
2022/12/07 00:11:41;;;;;;;22.87;18.17;;;6.20;99.90;;;;;;4994313;28;20462;-76
2022/12/07 00:14:13;;;;;;;23.93;18.07;;;6.20;99.90;;;;;;4994449;28;20477;-76
2022/12/07 00:16:40;;;;;;;24.13;16.80;;;6.20;99.90;;;;;;4993956;28;20910;-76
2022/12/07 00:19:10;;;;;;;20.70;16.50;;;6.20;99.90;;;;;;4994588;28;20492;-76
2022/12/07 00:21:37;;;;;;;22.57;17.27;;;6.20;99.90;;;;;;4994078;28;20496;-76
2022/12/07 00:24:06;;;;;;;24.50;18.03;;;6.10;99.90;;;;;;4993931;28;20531;-76
2022/12/07 00:26:34;;;;;;;22.03;18.47;;;6.10;99.90;;;;;;4994279;28;20451;-76
2022/12/07 00:29:03;;;;;;;25.30;20.00;;;6.00;99.90;;;;;;4994111;28;20470;-77
2022/12/07 00:31:33;;;;;;;29.53;20.20;;;5.90;99.90;;;;;;4994533;28;20456;-76
2022/12/07 00:34:00;;;;;;;26.50;19.20;;;6.00;99.90;;;;;;4994760;28;20480;-76
2022/12/07 00:36:28;;;;;;;28.97;21.40;;;5.90;99.90;;;;;;4994465;28;20813;-76
2022/12/07 00:38:58;;;;;;;36.93;22.90;;;5.90;99.90;;;;;;4994328;28;20492;-76
2022/12/07 00:41:26;;;;;;;33.43;21.27;;;5.90;99.90;;;;;;4995740;28;20455;-76
2022/12/07 00:43:56;;;;;;;33.10;21.03;;;5.90;99.90;;;;;;5014139;28;20474;-76
2022/12/07 00:46:23;;;;;;;27.40;21.50;;;5.90;99.90;;;;;;5014433;28;20842;-76
2022/12/07 00:48:51;;;;;;;31.93;24.83;;;5.90;99.90;;;;;;5013757;28;20454;-76
2022/12/07 00:51:20;;;;;;;30.20;23.30;;;6.00;99.90;;;;;;5016977;28;20456;-76
2022/12/07 00:53:48;;;;;;;32.90;25.57;;;6.00;99.90;;;;;;5012578;28;20555;-76
2022/12/07 00:56:17;;;;;;;33.63;25.13;;;6.00;99.90;;;;;;4994429;28;20826;-75
2022/12/07 00:58:44;;;;;;;31.30;24.60;;;6.00;99.90;;;;;;4994211;28;21006;-76
2022/12/07 01:01:12;;;;;;;29.70;24.10;;;6.00;99.90;;;;;;4994811;28;20467;-76
2022/12/07 01:03:39;;;;;;;32.80;26.37;;;6.00;99.90;;;;;;4996514;28;20473;-76
2022/12/07 01:06:06;;;;;;;30.77;25.53;;;6.00;99.90;;;;;;5000593;28;21022;-76
2022/12/07 01:08:33;;;;;;;33.13;24.50;;;6.00;99.90;;;;;;5003157;28;20440;-76
2022/12/07 01:11:04;;;;;;;36.43;27.10;;;5.90;99.90;;;;;;5004589;28;20445;-76
2022/12/07 01:13:32;;;;;;;34.67;25.13;;;6.00;99.90;;;;;;5013810;28;20456;-76
2022/12/07 01:16:00;;;;;;;34.57;27.60;;;6.00;99.90;;;;;;5021412;28;20595;-75
2022/12/07 01:18:29;;;;;;;34.73;25.43;;;6.10;99.90;;;;;;5017513;28;20493;-76
2022/12/07 01:21:01;;;;;;;37.30;25.40;;;6.10;99.90;;;;;;5009378;28;20446;-76
2022/12/07 01:23:27;;;;;;;32.70;26.80;;;6.10;99.90;;;;;;5008225;28;20832;-76
2022/12/07 01:25:57;;;;;;;37.43;28.00;;;6.10;99.90;;;;;;5007976;28;20476;-76
2022/12/07 01:28:26;;;;;;;32.80;25.57;;;6.10;99.90;;;;;;5006618;28;20466;-76
2022/12/07 01:30:57;;;;;;;38.33;25.23;;;6.10;99.90;;;;;;5007146;28;20974;-77
2022/12/07 01:33:24;;;;;;;35.37;23.80;;;6.10;99.90;;;;;;5005763;28;20460;-76
2022/12/07 01:35:51;;;;;;;32.23;25.90;;;6.10;99.90;;;;;;5006424;28;20452;-76
2022/12/07 01:38:17;;;;;;;35.37;26.57;;;6.10;99.90;;;;;;5005332;28;20488;-76
2022/12/07 01:40:44;;;;;;;33.80;25.33;;;6.10;99.90;;;;;;5005502;28;20838;-76
2022/12/07 01:43:17;;;;;;;31.97;27.00;;;6.10;99.90;;;;;;5004874;28;20462;-76
2022/12/07 01:45:45;;;;;;;32.73;25.30;;;6.00;99.90;;;;;;5005528;28;20432;-76
2022/12/07 01:48:15;;;;;;;33.30;26.80;;;5.90;99.90;;;;;;5004692;28;20446;-77
2022/12/07 01:50:44;;;;;;;33.80;27.20;;;5.90;99.90;;;;;;5004772;28;20440;-76
2022/12/07 01:53:12;;;;;;;41.07;28.20;;;5.90;99.90;;;;;;5004065;28;20480;-76
2022/12/07 01:55:43;;;;;;;42.73;28.20;;;6.00;99.90;;;;;;5003563;28;20563;-76
2022/12/07 01:58:12;;;;;;;33.10;25.87;;;6.00;99.90;;;;;;5002841;28;20528;-76
2022/12/07 02:00:39;;;;;;;41.20;25.70;;;6.00;99.90;;;;;;5003567;28;20473;-76
2022/12/07 02:03:10;;;;;;;30.17;25.97;;;6.00;99.90;;;;;;5002827;28;20458;-76
2022/12/07 02:05:41;;;;;;;36.10;26.67;;;6.00;99.90;;;;;;5001996;28;20445;-76
2022/12/07 02:08:08;;;;;;;38.40;28.37;;;6.00;99.90;;;;;;5001507;28;20917;-76
2022/12/07 02:10:35;;;;;;;35.27;26.80;;;6.00;99.90;;;;;;5001845;28;20443;-77
2022/12/07 02:13:05;;;;;;;40.00;27.63;;;6.00;99.90;;;;;;5001311;28;20474;-76
2022/12/07 02:15:45;;;;;;;39.37;28.83;;;6.00;99.90;;;;;;5000253;28;20917;-76
2022/12/07 02:18:20;;;;;;;43.87;30.70;;;5.90;99.90;;;;;;5000714;28;20991;-77
2022/12/07 02:20:55;;;;;;;43.60;28.90;;;5.90;99.90;;;;;;4999994;28;20916;-76
2022/12/07 02:23:41;;;;;;;37.17;29.10;;;5.90;99.90;;;;;;4999856;28;20457;-76
2022/12/07 02:26:43;;;;;;;38.63;29.00;;;5.90;99.90;;;;;;4998782;28;20463;-77
2022/12/07 02:29:21;;;;;;;35.77;28.10;;;5.90;99.90;;;;;;4955071;28;20472;-77
2022/12/07 02:31:59;;;;;;;42.40;29.47;;;5.90;99.90;;;;;;4998947;28;20442;-75
2022/12/07 02:34:35;;;;;;;44.83;30.87;;;5.90;99.90;;;;;;4998317;28;21026;-76
2022/12/07 02:37:10;;;;;;;40.67;29.63;;;5.90;99.90;;;;;;4998941;28;20439;-76
2022/12/07 02:39:43;;;;;;;43.17;31.40;;;5.90;99.90;;;;;;4998527;28;20473;-76
2022/12/07 02:42:16;;;;;;;48.70;32.77;;;5.90;99.90;;;;;;4997498;28;20469;-77
2022/12/07 02:44:46;;;;;;;41.43;30.63;;;5.90;99.90;;;;;;4997889;28;20491;-75
2022/12/07 02:47:17;;;;;;;44.37;31.00;;;5.90;99.90;;;;;;4997583;28;20463;-77
2022/12/07 02:49:45;;;;;;;44.97;32.77;;;5.90;99.90;;;;;;4996786;28;20440;-76
2022/12/07 02:52:12;;;;;;;39.93;30.30;;;5.90;99.90;;;;;;4997003;28;20435;-76
2022/12/07 02:54:38;;;;;;;45.13;31.33;;;5.90;99.90;;;;;;4997011;28;20490;-75
2022/12/07 02:57:21;;;;;;;45.60;31.63;;;6.00;99.90;;;;;;4997269;28;20453;-76
2022/12/07 03:00:02;;;;;;;48.37;31.07;;;6.00;99.90;;;;;;4996419;28;20470;-75
2022/12/07 03:02:37;;;;;;;40.07;30.57;;;6.00;99.90;;;;;;4996582;28;20802;-75
2022/12/07 03:05:15;;;;;;;43.40;32.80;;;6.00;99.90;;;;;;4996501;28;20482;-75
2022/12/07 03:07:50;;;;;;;45.93;34.30;;;6.00;99.90;;;;;;4996985;28;20444;-76
2022/12/07 03:10:23;;;;;;;48.77;36.03;;;5.90;99.90;;;;;;4996158;28;20430;-76
2022/12/07 03:12:58;;;;;;;46.63;33.50;;;5.90;99.90;;;;;;4996956;28;20439;-76
2022/12/07 03:15:32;;;;;;;53.27;35.30;;;5.90;99.90;;;;;;4996611;28;20475;-75
2022/12/07 03:18:01;;;;;;;51.97;34.90;;;5.90;99.90;;;;;;4995563;28;20950;-76
2022/12/07 03:20:32;;;;;;;46.30;35.77;;;6.00;99.90;;;;;;4995728;28;20448;-76
2022/12/07 03:23:00;;;;;;;44.37;33.73;;;6.00;99.90;;;;;;4995548;28;20481;-77
2022/12/07 03:25:28;;;;;;;49.10;34.87;;;6.00;99.90;;;;;;4995816;28;20499;-76
2022/12/07 03:28:00;;;;;;;45.77;34.20;;;6.10;99.90;;;;;;4995366;28;20471;-75
2022/12/07 03:30:33;;;;;;;49.17;33.70;;;6.10;99.90;;;;;;4996182;28;20435;-75
2022/12/07 03:33:05;;;;;;;50.83;34.03;;;6.10;99.90;;;;;;4995145;28;20470;-75
2022/12/07 03:35:35;;;;;;;49.53;34.20;;;6.10;99.90;;;;;;4995559;28;20436;-75
2022/12/07 03:38:14;;;;;;;43.87;33.20;;;6.00;99.90;;;;;;5008412;28;20475;-75
2022/12/07 03:40:45;;;;;;;45.40;32.37;;;6.00;99.90;;;;;;5015217;28;20795;-77
2022/12/07 03:43:12;;;;;;;43.90;31.87;;;6.00;99.90;;;;;;5015422;28;20499;-76
2022/12/07 03:45:42;;;;;;;50.80;33.10;;;6.00;99.90;;;;;;5015402;28;20502;-76
2022/12/07 03:48:21;;;;;;;44.07;30.67;;;5.90;99.90;;;;;;5015289;28;20496;-76
2022/12/07 03:50:53;;;;;;;44.10;31.80;;;6.00;99.90;;;;;;5014408;28;20905;-76
2022/12/07 03:53:25;;;;;;;44.47;32.73;;;6.00;99.90;;;;;;5015100;28;20433;-76
2022/12/07 03:55:55;;;;;;;46.10;31.97;;;6.00;99.90;;;;;;4997132;28;20467;-76
2022/12/07 03:58:24;;;;;;;40.87;31.67;;;6.00;99.90;;;;;;4994868;28;20493;-77
2022/12/07 04:00:52;;;;;;;45.23;32.70;;;6.00;99.90;;;;;;4994549;28;20467;-76
2022/12/07 04:03:19;;;;;;;41.13;32.90;;;6.00;99.90;;;;;;4994681;28;20470;-76
2022/12/07 04:05:48;;;;;;;39.40;29.90;;;6.00;99.90;;;;;;4994755;28;20947;-77
2022/12/07 04:08:15;;;;;;;36.50;29.97;;;6.00;99.90;;;;;;4994832;28;20435;-77
2022/12/07 04:10:41;;;;;;;41.30;29.80;;;6.00;99.90;;;;;;4995198;28;20455;-77
2022/12/07 04:13:10;;;;;;;37.10;28.87;;;6.00;99.90;;;;;;4997756;28;20472;-75
2022/12/07 04:15:37;;;;;;;42.47;31.33;;;5.90;99.90;;;;;;5008076;28;20956;-76
2022/12/07 04:18:05;;;;;;;43.13;31.00;;;6.00;99.90;;;;;;4994901;28;20471;-77
2022/12/07 04:20:32;;;;;;;38.00;30.33;;;6.00;99.90;;;;;;4994498;28;20833;-77
2022/12/07 04:22:58;;;;;;;36.23;29.10;;;5.90;99.90;;;;;;4994273;28;20478;-76
2022/12/07 04:25:25;;;;;;;37.97;30.37;;;5.90;99.90;;;;;;4994072;28;20500;-75
2022/12/07 04:27:52;;;;;;;41.27;29.47;;;5.90;99.90;;;;;;5005744;28;20507;-75
2022/12/07 04:30:20;;;;;;;36.43;29.27;;;5.80;99.90;;;;;;5007174;28;20466;-76
2022/12/07 04:32:47;;;;;;;38.57;29.27;;;5.80;99.90;;;;;;4994804;28;20438;-76
2022/12/07 04:35:15;;;;;;;41.50;28.40;;;5.90;99.90;;;;;;4995428;28;21021;-76
2022/12/07 04:37:42;;;;;;;34.80;28.53;;;5.90;99.90;;;;;;4994355;28;20466;-76
2022/12/07 04:40:11;;;;;;;39.60;31.70;;;5.80;99.90;;;;;;4998188;28;20467;-75
2022/12/07 04:42:37;;;;;;;37.00;29.60;;;5.80;99.90;;;;;;4998046;28;20502;-76
2022/12/07 04:45:05;;;;;;;40.23;30.77;;;5.80;99.90;;;;;;4997959;28;20476;-76
2022/12/07 04:47:32;;;;;;;35.40;28.07;;;5.70;99.90;;;;;;4997978;28;20458;-75
2022/12/07 04:49:58;;;;;;;36.70;29.47;;;5.80;99.90;;;;;;4997765;28;20968;-76
2022/12/07 04:52:26;;;;;;;35.83;27.97;;;5.80;99.90;;;;;;4997834;28;20460;-76
2022/12/07 04:54:54;;;;;;;35.80;29.17;;;5.80;99.90;;;;;;4997615;28;20490;-76
2022/12/07 04:57:21;;;;;;;32.53;27.77;;;5.80;99.90;;;;;;4997992;28;20442;-76
2022/12/07 04:59:47;;;;;;;40.30;30.50;;;5.80;99.90;;;;;;4997781;28;20487;-76
2022/12/07 05:02:14;;;;;;;37.57;29.67;;;5.80;99.90;;;;;;4997845;28;20451;-76
2022/12/07 05:04:46;;;;;;;40.63;29.97;;;5.80;99.90;;;;;;4999836;28;20474;-76
2022/12/07 05:07:12;;;;;;;37.50;28.90;;;5.70;99.90;;;;;;4997571;28;20469;-76
2022/12/07 05:09:40;;;;;;;39.03;30.13;;;5.80;99.90;;;;;;4997425;28;20443;-76
2022/12/07 05:12:07;;;;;;;39.40;30.47;;;5.80;99.90;;;;;;4997068;28;20482;-76
2022/12/07 05:14:34;;;;;;;33.53;26.37;;;5.80;99.90;;;;;;4997478;28;20475;-77
2022/12/07 05:17:00;;;;;;;36.00;27.87;;;5.80;99.90;;;;;;4997447;28;20439;-76
2022/12/07 05:19:27;;;;;;;33.20;27.63;;;5.80;99.90;;;;;;4997024;28;20487;-75
2022/12/07 05:21:54;;;;;;;34.77;27.33;;;5.80;99.90;;;;;;4997250;28;20468;-76
2022/12/07 05:24:21;;;;;;;33.90;27.83;;;5.80;99.90;;;;;;4997456;28;20477;-75
2022/12/07 05:26:49;;;;;;;32.60;26.60;;;5.80;99.90;;;;;;4997341;28;20463;-76
2022/12/07 05:29:17;;;;;;;33.50;25.33;;;5.80;99.90;;;;;;4997514;28;20455;-76
2022/12/07 05:31:45;;;;;;;30.20;25.53;;;5.70;99.90;;;;;;4997155;28;20458;-76
2022/12/07 05:34:12;;;;;;;37.37;26.13;;;5.80;99.90;;;;;;4997472;28;20521;-76
2022/12/07 05:36:38;;;;;;;29.03;25.03;;;5.80;99.90;;;;;;4998221;28;20432;-77
2022/12/07 05:39:05;;;;;;;34.70;25.10;;;5.80;99.90;;;;;;4997201;28;20482;-77
2022/12/07 05:44:18;;;;;;;26.73;23.23;;;5.80;99.90;;;;;;4996735;28;20501;-77
2022/12/07 05:46:45;;;;;;;29.20;22.50;;;5.80;99.90;;;;;;4997116;28;20466;-77
2022/12/07 05:49:12;;;;;;;31.23;23.07;;;5.80;99.90;;;;;;4996917;28;20443;-76
2022/12/07 05:51:39;;;;;;;28.63;22.40;;;5.80;99.90;;;;;;4996735;28;20466;-76
2022/12/07 05:54:05;;;;;;;27.07;23.03;;;5.80;99.90;;;;;;4997069;28;20492;-76
2022/12/07 05:56:32;;;;;;;27.07;21.80;;;5.80;99.90;;;;;;4996566;28;20471;-76
2022/12/07 06:01:44;;;;;;;30.47;22.63;;;5.80;99.90;;;;;;4997649;28;20408;-75
2022/12/07 06:04:11;;;;;;;33.10;24.10;;;5.80;99.90;;;;;;4996894;28;20471;-75
2022/12/07 06:06:38;;;;;;;35.40;24.73;;;5.80;99.90;;;;;;4997018;28;20845;-75
2022/12/07 06:09:05;;;;;;;36.80;25.03;;;5.70;99.90;;;;;;4997315;28;20450;-76
2022/12/07 06:14:18;;;;;;;34.60;25.80;;;5.70;99.90;;;;;;4996663;28;20461;-76
2022/12/07 06:16:46;;;;;;;35.80;24.90;;;5.70;99.90;;;;;;4996194;28;20440;-76
2022/12/07 06:19:13;;;;;;;33.17;24.50;;;5.70;99.90;;;;;;4996405;28;20670;-76
2022/12/07 06:21:39;;;;;;;31.07;23.33;;;5.70;99.90;;;;;;4996281;28;20456;-75
2022/12/07 06:24:06;;;;;;;33.63;24.90;;;5.70;99.90;;;;;;4997158;28;20495;-76
2022/12/07 06:26:33;;;;;;;37.03;24.17;;;5.70;99.90;;;;;;4995499;28;20474;-75
2022/12/07 06:29:00;;;;;;;33.60;25.40;;;5.60;99.90;;;;;;4995822;28;20938;-75
2022/12/07 06:31:27;;;;;;;25.43;22.00;;;5.70;99.90;;;;;;4996028;28;20471;-75
2022/12/07 06:33:59;;;;;;;31.90;22.50;;;5.70;99.90;;;;;;4996054;28;20467;-75
2022/12/07 06:36:26;;;;;;;27.30;23.00;;;5.70;99.90;;;;;;4996016;28;20435;-76
2022/12/07 06:38:53;;;;;;;30.97;21.47;;;5.80;99.90;;;;;;4995645;28;20450;-76
2022/12/07 06:41:19;;;;;;;31.23;22.10;;;5.70;99.90;;;;;;4995843;28;20932;-76
2022/12/07 06:43:47;;;;;;;28.60;23.10;;;5.70;99.90;;;;;;4995509;28;20495;-76
2022/12/07 06:46:17;;;;;;;26.40;21.10;;;5.50;99.90;;;;;;4995813;28;20452;-76
2022/12/07 06:48:44;;;;;;;27.97;20.43;;;5.50;99.90;;;;;;4997206;28;20450;-75
2022/12/07 06:51:12;;;;;;;25.27;21.27;;;5.60;99.90;;;;;;4995687;28;20469;-75
2022/12/07 06:53:41;;;;;;;26.00;21.50;;;5.60;99.90;;;;;;4996542;28;20837;-75
2022/12/07 06:56:08;;;;;;;26.83;20.33;;;5.60;99.90;;;;;;4995587;28;20886;-75
2022/12/07 06:58:35;;;;;;;26.87;20.13;;;5.70;99.90;;;;;;4995776;28;20533;-75
2022/12/07 07:01:01;;;;;;;26.90;20.23;;;5.70;99.90;;;;;;4994886;28;20497;-75
2022/12/07 07:03:28;;;;;;;22.80;19.30;;;5.70;99.90;;;;;;4995387;28;20470;-75
2022/12/07 07:05:55;;;;;;;24.30;20.30;;;5.70;99.90;;;;;;4998007;28;20488;-75
2022/12/07 07:08:23;;;;;;;26.67;18.20;;;5.70;99.90;;;;;;5014878;28;20954;-77
2022/12/07 07:10:50;;;;;;;22.40;18.97;;;5.70;99.90;;;;;;5015073;28;20446;-76
2022/12/07 07:13:17;;;;;;;20.20;16.40;;;5.80;99.90;;;;;;5014593;28;20431;-76
2022/12/07 07:15:43;;;;;;;21.00;17.30;;;5.80;99.90;;;;;;5015092;28;20455;-76
2022/12/07 07:18:10;;;;;;;18.87;16.90;;;5.80;99.90;;;;;;5014887;28;20449;-76
2022/12/07 07:20:37;;;;;;;22.30;16.77;;;5.80;99.90;;;;;;5014637;28;20852;-76
2022/12/07 07:23:04;;;;;;;25.77;17.07;;;5.70;99.90;;;;;;5014649;28;20476;-76
2022/12/07 07:25:33;;;;;;;19.17;16.10;;;5.60;99.90;;;;;;5014154;28;20997;-76
2022/12/07 07:27:59;;;;;;;19.50;16.23;;;5.60;99.90;;;;;;5014540;28;20453;-76
2022/12/07 07:30:26;;;;;;;18.93;15.47;;;5.60;99.90;;;;;;5014596;28;20441;-76
2022/12/07 07:32:57;;;;;;;17.47;15.70;;;5.60;99.90;;;;;;5014482;28;20453;-76
2022/12/07 07:35:23;;;;;;;19.27;15.80;;;5.50;99.90;;;;;;5014447;28;20836;-76
2022/12/07 07:37:50;;;;;;;16.53;14.93;;;5.50;99.90;;;;;;5014483;28;20454;-76
2022/12/07 07:40:17;;;;;;;17.03;15.00;;;5.50;99.90;;;;;;5014270;28;20485;-76
2022/12/07 07:42:48;;;;;;;22.80;16.77;;;5.50;99.90;;;;;;5013268;28;20454;-76
2022/12/07 07:45:16;;;;;;;20.40;15.90;;;5.50;99.90;;;;;;4994520;28;20514;-76
2022/12/07 07:47:43;;;;;;;22.97;16.50;;;5.50;99.90;;;;;;4994676;28;20837;-76
2022/12/07 07:50:10;;;;;;;21.67;18.33;;;5.50;99.90;;;;;;4994783;28;20449;-76
2022/12/07 07:52:37;;;;;;;24.77;19.70;;;5.50;99.90;;;;;;4994449;28;20455;-76
2022/12/07 07:55:04;;;;;;;26.20;18.97;;;5.50;99.90;;;;;;4994130;28;21001;-76
2022/12/07 07:57:31;;;;;;;24.33;20.57;;;5.60;99.90;;;;;;4994269;28;20450;-75
2022/12/07 07:59:59;;;;;;;25.00;19.20;;;5.60;99.90;;;;;;4994706;28;20491;-76
2022/12/07 08:02:29;;;;;;;24.67;19.93;;;5.70;99.90;;;;;;4994289;28;20860;-76
2022/12/07 08:04:56;;;;;;;25.27;19.17;;;5.70;99.90;;;;;;4994298;28;20473;-76
2022/12/07 08:07:22;;;;;;;23.73;20.70;;;5.80;99.90;;;;;;5001694;28;20468;-76
2022/12/07 08:09:49;;;;;;;23.20;19.43;;;5.80;99.90;;;;;;5013998;28;20454;-76
2022/12/07 08:12:16;;;;;;;41.30;21.17;;;5.80;99.90;;;;;;4994862;28;20980;-76
2022/12/07 08:14:42;;;;;;;28.80;21.93;;;5.90;99.90;;;;;;4993803;28;20486;-76
2022/12/07 08:17:11;;;;;;;23.77;19.80;;;5.90;99.90;;;;;;4994355;28;20462;-76
2022/12/07 08:19:37;;;;;;;24.60;20.80;;;5.90;99.90;;;;;;4993891;28;20501;-76
2022/12/07 08:22:04;;;;;;;24.93;19.70;;;5.80;99.90;;;;;;4994454;28;20469;-76
2022/12/07 08:24:31;;;;;;;27.20;21.67;;;5.90;99.90;;;;;;4994010;28;20489;-76
2022/12/07 08:26:57;;;;;;;26.87;23.17;;;5.90;99.90;;;;;;4993840;28;20473;-76
2022/12/07 08:29:24;;;;;;;28.57;23.50;;;5.90;99.90;;;;;;4994080;28;20454;-76
2022/12/07 08:31:51;;;;;;;27.00;20.40;;;5.90;99.90;;;;;;4993577;28;20470;-76
2022/12/07 08:34:19;;;;;;;30.70;23.17;;;5.90;99.90;;;;;;4993916;28;20591;-76
2022/12/07 08:36:45;;;;;;;24.80;21.77;;;5.90;99.90;;;;;;4993485;28;20966;-76
2022/12/07 08:39:12;;;;;;;25.30;20.60;;;6.00;99.90;;;;;;4994202;28;20448;-76
2022/12/07 08:41:39;;;;;;;23.87;19.77;;;5.90;99.90;;;;;;4993991;28;20845;-76
2022/12/07 08:44:06;;;;;;;26.40;22.70;;;5.90;99.90;;;;;;4993959;28;20477;-76
2022/12/07 08:46:37;;;;;;;29.50;21.83;;;6.00;99.90;;;;;;4994093;28;20538;-77
2022/12/07 08:49:09;;;;;;;29.10;23.53;;;5.90;99.90;;;;;;4993994;28;20440;-76
2022/12/07 08:51:37;;;;;;;27.43;23.60;;;5.90;99.90;;;;;;4993903;28;20433;-76
2022/12/07 08:54:07;;;;;;;26.60;20.50;;;6.00;99.90;;;;;;4993800;28;20493;-75
2022/12/07 08:56:34;;;;;;;27.37;21.03;;;6.00;99.90;;;;;;4993532;28;20462;-75
2022/12/07 08:59:01;;;;;;;25.70;20.23;;;6.00;99.90;;;;;;4993757;28;20446;-75
2022/12/07 09:01:28;;;;;;;25.80;19.40;;;6.00;99.90;;;;;;4993547;28;20485;-75
2022/12/07 09:03:55;;;;;;;22.03;18.13;;;6.00;99.90;;;;;;4993451;28;20835;-76
2022/12/07 09:06:22;;;;;;;22.17;19.77;;;6.00;99.90;;;;;;4993601;28;20498;-76
2022/12/07 09:08:53;;;;;;;26.30;18.40;;;6.10;99.90;;;;;;4993330;28;20986;-76
2022/12/07 09:11:20;;;;;;;30.50;18.50;;;6.10;99.90;;;;;;4993498;28;20906;-76
2022/12/07 09:13:46;;;;;;;22.27;18.40;;;6.20;99.90;;;;;;4998098;28;20490;-75
2022/12/07 09:16:13;;;;;;;22.70;18.90;;;6.20;99.90;;;;;;5003134;28;20474;-75
2022/12/07 09:18:40;;;;;;;23.10;17.67;;;6.30;99.90;;;;;;4993657;28;20452;-76
2022/12/07 09:21:06;;;;;;;25.13;16.97;;;6.40;99.90;;;;;;4993462;28;20486;-75
2022/12/07 09:23:33;;;;;;;25.63;18.13;;;6.40;99.90;;;;;;4993018;28;20490;-75
2022/12/07 09:26:02;;;;;;;23.87;17.80;;;6.40;99.90;;;;;;4996591;28;20468;-75
2022/12/07 09:28:29;;;;;;;19.63;17.53;;;6.40;99.90;;;;;;4997270;28;20450;-76
2022/12/07 09:30:55;;;;;;;23.37;19.27;;;6.40;99.90;;;;;;4997424;28;20458;-76
2022/12/07 09:33:22;;;;;;;22.83;17.53;;;6.40;99.90;;;;;;4997253;28;20475;-75
2022/12/07 09:35:51;;;;;;;26.37;17.47;;;6.40;99.90;;;;;;4996844;28;20986;-75
2022/12/07 09:38:18;;;;;;;32.00;17.53;;;6.40;99.90;;;;;;4996696;28;20948;-75
2022/12/07 09:40:45;;;;;;;24.70;18.57;;;6.20;99.90;;;;;;4997071;28;20475;-75
2022/12/07 09:43:16;;;;;;;24.23;17.97;;;6.30;99.90;;;;;;4996509;28;20457;-75
2022/12/07 09:45:45;;;;;;;21.70;17.30;;;6.40;99.90;;;;;;4997175;28;20468;-75
2022/12/07 09:48:19;;;;;;;18.37;15.97;;;6.50;99.90;;;;;;4996603;28;20960;-75
2022/12/07 09:50:46;;;;;;;19.60;15.97;;;6.50;99.90;;;;;;4997492;28;20468;-75
2022/12/07 09:53:18;;;;;;;19.40;15.67;;;6.60;99.90;;;;;;4996403;28;20474;-75
2022/12/07 09:55:45;;;;;;;21.10;16.17;;;6.70;99.90;;;;;;4996160;28;20958;-75
2022/12/07 09:58:21;;;;;;;20.30;17.00;;;6.70;99.90;;;;;;4996693;28;20486;-76
2022/12/07 10:00:47;;;;;;;23.63;15.93;;;6.70;99.90;;;;;;4996891;28;20474;-75
2022/12/07 10:03:14;;;;;;;27.40;16.67;;;6.70;99.90;;;;;;4996398;28;20447;-75
2022/12/07 10:05:45;;;;;;;21.23;16.80;;;6.60;99.90;;;;;;4996616;28;20853;-75
2022/12/07 10:08:13;;;;;;;20.00;14.30;;;6.60;99.90;;;;;;4996672;28;20459;-75
2022/12/07 10:10:40;;;;;;;20.73;16.60;;;6.70;99.90;;;;;;4996655;28;20459;-75
2022/12/07 10:13:08;;;;;;;24.80;15.93;;;6.70;99.90;;;;;;4996865;28;20456;-75
2022/12/07 10:15:52;;;;;;;19.13;14.03;;;6.70;99.90;;;;;;4996463;28;20454;-75
2022/12/07 10:18:37;;;;;;;19.07;14.20;;;6.90;99.90;;;;;;4996834;28;20789;-76
2022/12/07 10:21:13;;;;;;;19.97;15.60;;;7.10;99.90;;;;;;4996149;28;20478;-75
2022/12/07 10:23:41;;;;;;;19.83;14.50;;;7.20;99.90;;;;;;4995765;28;20521;-75
2022/12/07 10:26:26;;;;;;;22.20;14.67;;;7.20;99.90;;;;;;4995565;28;20980;-75
2022/12/07 10:28:53;;;;;;;16.70;14.67;;;7.30;99.90;;;;;;4995800;28;20439;-76
2022/12/07 10:31:23;;;;;;;15.17;13.03;;;7.30;99.90;;;;;;4996865;28;20445;-75
2022/12/07 10:33:52;;;;;;;23.20;15.20;;;7.30;99.90;;;;;;5003633;28;20494;-77
2022/12/07 10:36:23;;;;;;;19.50;13.57;;;7.40;99.90;;;;;;5004086;28;20465;-76
2022/12/07 10:38:51;;;;;;;15.63;13.50;;;7.40;99.90;;;;;;4995508;28;20969;-76
2022/12/07 10:41:18;;;;;;;21.30;14.20;;;7.40;99.90;;;;;;4995312;28;21062;-75
2022/12/07 10:43:51;;;;;;;15.67;13.40;;;7.40;99.90;;;;;;4995597;28;20533;-75
2022/12/07 10:46:52;;;;;;;21.67;13.80;;;7.40;99.90;;;;;;4995769;28;20448;-76
2022/12/07 10:49:45;;;;;;;19.17;14.30;;;7.40;99.90;;;;;;4995460;28;20428;-76
2022/12/07 10:52:22;;;;;;;21.57;14.80;;;7.50;99.90;;;;;;4995870;28;20456;-75
2022/12/07 10:55:02;;;;;;;18.07;12.50;;;7.60;99.90;;;;;;4995530;28;20552;-75
2022/12/07 10:57:44;;;;;;;18.37;12.67;;;7.70;99.90;;;;;;4995943;28;20464;-75
2022/12/07 11:00:17;;;;;;;21.90;15.53;;;7.90;99.90;;;;;;4995384;28;20429;-75
2022/12/07 11:03:23;;;;;;;19.33;13.60;;;7.90;99.90;;;;;;4995177;28;20937;-75
2022/12/07 11:05:57;;;;;;;16.63;13.60;;;7.90;99.90;;;;;;4995114;28;20446;-75
2022/12/07 11:08:40;;;;;;;18.30;13.70;;;7.70;99.80;;;;;;4995025;28;20923;-75
2022/12/07 11:11:13;;;;;;;21.77;15.20;;;7.80;99.80;;;;;;4995276;28;20429;-75
2022/12/07 11:13:49;;;;;;;23.03;14.83;;;7.70;99.70;;;;;;4994864;28;20475;-75
2022/12/07 11:16:25;;;;;;;19.07;14.50;;;7.70;99.90;;;;;;4995138;28;20436;-75
2022/12/07 11:19:22;;;;;;;20.23;16.60;;;7.70;99.90;;;;;;4995134;28;20492;-75
2022/12/07 11:21:58;;;;;;;21.00;14.80;;;7.80;99.90;;;;;;4994916;28;20547;-75
2022/12/07 11:24:33;;;;;;;22.90;15.23;;;7.90;99.90;;;;;;4995542;28;20523;-75
2022/12/07 11:27:11;;;;;;;23.80;15.10;;;7.90;99.90;;;;;;4994603;28;20479;-75
2022/12/07 11:29:50;;;;;;;16.47;14.57;;;8.00;99.90;;;;;;4994387;28;20812;-75
2022/12/07 11:32:22;;;;;;;19.23;14.90;;;8.00;99.30;;;;;;4994927;28;20843;-75
2022/12/07 11:35:04;;;;;;;16.80;14.03;;;7.90;99.40;;;;;;4996032;28;20470;-75
2022/12/07 11:37:34;;;;;;;22.87;15.17;;;7.90;99.10;;;;;;4996385;28;20445;-75
2022/12/07 11:40:06;;;;;;;24.23;14.90;;;8.00;99.60;;;;;;4996809;28;20822;-75
2022/12/07 11:42:38;;;;;;;24.23;12.17;;;8.10;99.80;;;;;;5007687;28;20534;-76
2022/12/07 11:45:15;;;;;;;15.00;12.47;;;8.30;98.90;;;;;;4995093;28;20492;-76
2022/12/07 11:47:47;;;;;;;14.47;10.90;;;8.40;98.40;;;;;;4995174;28;20460;-75
2022/12/07 11:50:24;;;;;;;14.63;11.37;;;8.40;97.90;;;;;;4996162;28;20449;-75
2022/12/07 11:52:55;;;;;;;19.87;11.40;;;8.50;97.70;;;;;;4995011;28;20807;-76
2022/12/07 11:55:28;;;;;;;11.47;10.27;;;8.60;97.30;;;;;;4995262;28;20467;-75
2022/12/07 11:58:04;;;;;;;14.93;9.67;;;8.70;96.90;;;;;;4995372;28;20430;-76
2022/12/07 12:00:30;;;;;;;11.13;9.20;;;8.80;96.80;;;;;;4994517;28;20457;-76
2022/12/07 12:03:02;;;;;;;12.57;10.10;;;8.90;96.40;;;;;;4994067;28;20974;-75
2022/12/07 12:05:29;;;;;;;13.67;9.10;;;8.90;96.00;;;;;;4994534;28;20470;-76
2022/12/07 12:08:04;;;;;;;15.60;9.23;;;8.80;95.60;;;;;;4994548;28;20951;-76
2022/12/07 12:10:41;;;;;;;15.33;9.50;;;8.80;95.70;;;;;;4994708;28;20448;-76
2022/12/07 12:13:38;;;;;;;12.03;8.10;;;8.80;95.90;;;;;;4995005;28;20440;-75
2022/12/07 12:16:36;;;;;;;15.63;9.13;;;8.80;96.30;;;;;;4986491;28;20483;-77
2022/12/07 12:19:19;;;;;;;11.20;9.10;;;9.00;95.70;;;;;;4994324;28;20834;-76
2022/12/07 12:21:49;;;;;;;13.53;8.60;;;9.20;95.10;;;;;;4994625;28;20471;-76
2022/12/07 12:24:20;;;;;;;9.83;8.37;;;9.40;94.50;;;;;;4994164;28;21029;-75
2022/12/07 12:26:53;;;;;;;12.20;7.30;;;9.70;94.30;;;;;;4994497;28;20470;-76
2022/12/07 12:29:24;;;;;;;15.57;9.03;;;9.80;93.30;;;;;;4994320;28;20483;-76
2022/12/07 12:32:08;;;;;;;14.97;8.60;;;10.00;92.10;;;;;;4994353;28;20440;-76
2022/12/07 12:34:40;;;;;;;13.17;8.87;;;10.00;91.60;;;;;;4994167;28;20482;-76
2022/12/07 12:37:45;;;;;;;10.73;8.70;;;9.90;92.60;;;;;;4994451;28;20467;-76
2022/12/07 12:40:52;;;;;;;13.70;9.70;;;9.80;93.10;;;;;;4994118;28;20876;-77
2022/12/07 12:43:58;;;;;;;10.57;7.47;;;9.80;93.40;;;;;;4994284;28;20451;-76
2022/12/07 12:46:53;;;;;;;11.00;8.60;;;9.80;93.40;;;;;;4992201;28;20475;-76
2022/12/07 12:49:44;;;;;;;10.27;8.63;;;9.70;93.30;;;;;;4994088;28;20434;-76
2022/12/07 12:52:48;;;;;;;14.63;9.60;;;9.50;94.20;;;;;;4993884;28;20463;-76
2022/12/07 12:55:24;;;;;;;15.30;9.10;;;9.50;94.20;;;;;;4991819;28;20506;-76
2022/12/07 12:58:28;;;;;;;16.40;9.13;;;9.20;94.10;;;;;;4993430;28;20934;-76
2022/12/07 13:01:33;;;;;;;10.40;8.17;;;9.00;95.00;;;;;;4997953;28;20477;-77
2022/12/07 13:04:00;;;;;;;11.80;8.50;;;9.00;95.70;;;;;;4992422;28;20488;-77
2022/12/07 13:06:37;;;;;;;13.53;7.83;;;8.90;95.60;;;;;;4997926;28;20469;-77